createdAt,value
2024-05-09T00:01:33.366Z,7.90
2024-05-09T00:04:15.675Z,7.80
2024-05-09T00:06:58.426Z,7.80
2024-05-09T00:09:40.674Z,7.70
2024-05-09T00:12:23.457Z,7.70
2024-05-09T00:15:06.452Z,7.60
2024-05-09T00:17:49.383Z,7.60
2024-05-09T00:20:38.045Z,7.50
2024-05-09T00:23:23.404Z,7.50
2024-05-09T00:26:05.757Z,7.50
2024-05-09T00:28:48.503Z,7.40
2024-05-09T00:31:30.801Z,7.30
2024-05-09T00:34:13.652Z,7.20
2024-05-09T00:36:55.912Z,7.20
2024-05-09T00:39:38.527Z,7.10
2024-05-09T00:42:20.901Z,7.10
2024-05-09T00:45:04.005Z,7.10
2024-05-09T00:47:47.020Z,7.10
2024-05-09T00:50:35.896Z,7.00
2024-05-09T00:53:21.111Z,6.90
2024-05-09T00:56:05.130Z,6.90
2024-05-09T00:58:50.262Z,6.90
2024-05-09T01:01:33.475Z,6.80
2024-05-09T01:04:16.656Z,6.80
2024-05-09T01:06:59.403Z,6.70
2024-05-09T01:09:41.626Z,6.70
2024-05-09T01:12:25.226Z,6.70
2024-05-09T01:15:07.789Z,6.70
2024-05-09T01:17:51.100Z,6.60
2024-05-09T01:20:41.024Z,6.50
2024-05-09T01:23:26.452Z,6.50
2024-05-09T01:26:08.746Z,6.50
2024-05-09T01:28:51.463Z,6.50
2024-05-09T01:31:33.807Z,6.40
2024-05-09T01:34:16.521Z,6.40
2024-05-09T01:36:58.870Z,6.40
2024-05-09T01:39:41.560Z,6.30
2024-05-09T01:42:23.811Z,6.30
2024-05-09T01:45:07.688Z,6.20
2024-05-09T01:47:50.033Z,6.20
2024-05-09T01:50:38.878Z,6.10
2024-05-09T01:53:24.073Z,6.10
2024-05-09T01:56:07.356Z,6.00
2024-05-09T01:58:49.710Z,6.00
2024-05-09T02:01:55.430Z,5.90
2024-05-09T02:04:35.293Z,5.90
2024-05-09T02:07:18.103Z,5.90
2024-05-09T02:10:00.331Z,5.90
2024-05-09T02:12:43.021Z,5.90
2024-05-09T02:15:25.333Z,5.90
2024-05-09T02:18:09.020Z,5.80
2024-05-09T02:20:51.534Z,5.80
2024-05-09T02:23:34.295Z,5.80
2024-05-09T02:26:16.763Z,5.80
2024-05-09T02:28:59.908Z,5.70
2024-05-09T02:31:42.149Z,5.70
2024-05-09T02:34:25.007Z,5.70
2024-05-09T02:37:07.414Z,5.70
2024-05-09T02:39:50.099Z,5.60
2024-05-09T02:42:32.336Z,5.60
2024-05-09T02:45:14.994Z,5.50
2024-05-09T02:47:57.665Z,5.50
2024-05-09T02:50:41.132Z,5.50
2024-05-09T02:53:23.678Z,5.50
2024-05-09T02:56:06.740Z,5.50
2024-05-09T02:58:49.134Z,5.50
2024-05-09T03:01:31.949Z,5.50
2024-05-09T03:04:14.303Z,5.40
2024-05-09T03:06:57.081Z,5.40
2024-05-09T03:09:39.382Z,5.40
2024-05-09T03:12:22.244Z,5.40
2024-05-09T03:15:04.925Z,5.30
2024-05-09T03:17:47.822Z,5.30
2024-05-09T03:20:34.343Z,5.30
2024-05-09T03:23:18.701Z,5.30
2024-05-09T03:26:01.023Z,5.30
2024-05-09T03:28:44.728Z,5.40
2024-05-09T03:31:27.114Z,5.40
2024-05-09T03:34:11.326Z,5.40
2024-05-09T03:36:53.912Z,5.40
2024-05-09T03:39:36.702Z,5.40
2024-05-09T03:42:18.973Z,5.60
2024-05-09T03:45:01.727Z,5.70
2024-05-09T03:47:44.240Z,5.80
2024-05-09T03:50:33.686Z,6.00
2024-05-09T03:53:18.524Z,6.10
2024-05-09T03:56:03.954Z,6.20
2024-05-09T03:58:46.353Z,6.30
2024-05-09T04:01:30.297Z,6.40
2024-05-09T04:04:13.108Z,6.50
2024-05-09T04:06:56.002Z,6.50
2024-05-09T04:09:38.398Z,6.70
2024-05-09T04:12:21.228Z,6.80
2024-05-09T04:15:03.843Z,6.90
2024-05-09T04:17:51.771Z,7.00
2024-05-09T04:20:38.862Z,7.10
2024-05-09T04:23:23.635Z,7.20
2024-05-09T04:26:08.730Z,7.30
2024-05-09T04:28:51.614Z,7.30
2024-05-09T04:31:37.113Z,7.40
2024-05-09T04:34:20.004Z,7.50
2024-05-09T04:37:03.466Z,7.50
2024-05-09T04:39:46.164Z,7.60
2024-05-09T04:42:28.668Z,7.80
2024-05-09T04:45:11.558Z,8.00
2024-05-09T04:47:54.827Z,8.40
2024-05-09T04:50:39.326Z,8.80
2024-05-09T04:53:22.208Z,9.10
2024-05-09T04:56:05.433Z,9.40
2024-05-09T04:58:47.784Z,10.00
2024-05-09T05:01:30.705Z,10.60
2024-05-09T05:04:13.179Z,11.00
2024-05-09T05:06:58.315Z,11.60
2024-05-09T05:09:42.319Z,12.20
2024-05-09T05:12:43.538Z,12.70
2024-05-09T05:15:25.775Z,12.50
2024-05-09T05:18:08.873Z,12.80
2024-05-09T05:20:51.694Z,13.20
2024-05-09T05:23:34.909Z,13.30
2024-05-09T05:26:20.623Z,13.60
2024-05-09T05:29:03.700Z,13.90
2024-05-09T05:31:46.062Z,14.30
2024-05-09T05:34:28.936Z,14.70
2024-05-09T05:37:11.245Z,14.80
2024-05-09T05:39:54.039Z,15.10
2024-05-09T05:42:36.981Z,15.20
2024-05-09T05:45:19.762Z,14.90
2024-05-09T05:48:05.764Z,15.00
2024-05-09T05:50:50.097Z,15.30
2024-05-09T05:53:32.811Z,15.40
2024-05-09T05:56:15.681Z,15.40
2024-05-09T05:58:58.147Z,15.60
2024-05-09T06:01:41.318Z,15.80
2024-05-09T06:04:23.836Z,16.10
2024-05-09T06:07:06.878Z,16.30
2024-05-09T06:09:50.473Z,16.30
2024-05-09T06:12:33.494Z,16.20
2024-05-09T06:15:15.905Z,16.10
2024-05-09T06:17:59.350Z,16.10
2024-05-09T06:20:43.653Z,16.20
2024-05-09T06:23:27.403Z,16.10
2024-05-09T06:26:09.814Z,16.20
2024-05-09T06:28:52.836Z,16.50
2024-05-09T06:31:44.799Z,16.60
2024-05-09T06:34:29.144Z,16.30
2024-05-09T06:37:11.679Z,16.00
2024-05-09T06:39:54.568Z,16.20
2024-05-09T06:42:36.910Z,16.50
2024-05-09T06:45:19.928Z,16.80
2024-05-09T06:48:02.517Z,16.90
2024-05-09T06:50:45.575Z,17.00
2024-05-09T06:53:28.557Z,16.80
2024-05-09T06:56:11.499Z,16.90
2024-05-09T06:58:54.542Z,16.80
2024-05-09T07:01:40.488Z,16.80
2024-05-09T07:04:23.072Z,16.50
2024-05-09T07:07:07.491Z,16.40
2024-05-09T07:09:49.909Z,16.70
2024-05-09T07:12:32.833Z,17.00
2024-05-09T07:15:15.988Z,17.10
2024-05-09T07:17:58.916Z,16.90
2024-05-09T07:20:41.677Z,16.90
2024-05-09T07:23:24.689Z,17.00
2024-05-09T07:26:07.410Z,17.00
2024-05-09T07:28:50.341Z,17.00
2024-05-09T07:31:32.825Z,16.90
2024-05-09T07:34:16.790Z,16.60
2024-05-09T07:36:59.271Z,16.80
2024-05-09T07:39:42.321Z,16.60
2024-05-09T07:42:24.658Z,16.90
2024-05-09T07:45:29.532Z,17.30
2024-05-09T07:49:44.802Z,17.30
2024-05-09T07:54:01.908Z,17.30
2024-05-09T07:56:45.622Z,17.10
2024-05-09T07:59:27.977Z,17.50
2024-05-09T08:02:11.803Z,17.80
2024-05-09T08:05:04.355Z,17.50
2024-05-09T08:07:47.697Z,17.20
2024-05-09T08:10:30.390Z,16.90
2024-05-09T08:13:13.371Z,17.00
2024-05-09T08:15:56.821Z,16.90
2024-05-09T08:18:41.388Z,16.80
2024-05-09T08:21:35.766Z,17.10
2024-05-09T08:24:20.642Z,17.40
2024-05-09T08:27:03.722Z,17.20
2024-05-09T08:29:46.752Z,17.30
2024-05-09T08:32:32.286Z,17.50
2024-05-09T08:35:15.315Z,17.60
2024-05-09T08:37:58.076Z,17.40
2024-05-09T08:40:41.934Z,17.50
2024-05-09T08:43:26.751Z,17.70
2024-05-09T08:46:10.024Z,17.80
2024-05-09T08:48:55.648Z,18.00
2024-05-09T08:51:38.672Z,18.10
2024-05-09T08:54:22.791Z,18.10
2024-05-09T08:57:07.349Z,17.90
2024-05-09T08:59:51.985Z,17.80
2024-05-09T09:02:38.240Z,17.90
2024-05-09T09:05:23.944Z,17.70
2024-05-09T09:08:08.617Z,17.40
2024-05-09T09:10:54.247Z,17.70
2024-05-09T09:13:37.395Z,17.90
2024-05-09T09:16:19.949Z,17.40
2024-05-09T09:19:04.348Z,16.90
2024-05-09T09:21:47.016Z,16.80
2024-05-09T09:24:29.870Z,17.10
2024-05-09T09:27:15.309Z,17.40
2024-05-09T09:29:58.022Z,17.70
2024-05-09T09:32:40.784Z,18.00
2024-05-09T09:35:23.818Z,18.10
2024-05-09T09:38:10.086Z,17.70
2024-05-09T09:40:53.585Z,17.60
2024-05-09T09:43:37.202Z,17.40
2024-05-09T09:46:20.472Z,17.20
2024-05-09T09:49:03.493Z,17.40
2024-05-09T09:51:48.356Z,17.60
2024-05-09T09:54:33.436Z,17.90
2024-05-09T09:57:18.541Z,17.90
2024-05-09T10:00:01.278Z,17.70
2024-05-09T10:02:47.223Z,17.80
2024-05-09T10:05:30.552Z,18.20
2024-05-09T10:08:14.903Z,18.10
2024-05-09T10:10:59.257Z,18.20
2024-05-09T10:13:45.299Z,18.20
2024-05-09T10:16:33.304Z,17.90
2024-05-09T10:19:31.696Z,17.90
2024-05-09T10:22:34.496Z,17.70
2024-05-09T10:25:19.703Z,17.80
2024-05-09T10:28:03.346Z,17.80
2024-05-09T10:30:48.081Z,17.70
2024-05-09T10:33:48.691Z,17.80
2024-05-09T10:36:31.690Z,18.20
2024-05-09T10:39:14.715Z,18.40
2024-05-09T10:41:57.244Z,18.70
2024-05-09T10:44:39.994Z,19.10
2024-05-09T10:47:22.870Z,19.20
2024-05-09T10:50:12.736Z,18.80
2024-05-09T10:53:01.061Z,18.80
2024-05-09T10:55:43.828Z,18.70
2024-05-09T10:58:27.263Z,19.00
2024-05-09T11:01:10.901Z,18.90
2024-05-09T11:03:53.730Z,18.60
2024-05-09T11:06:38.283Z,18.30
2024-05-09T11:09:21.033Z,18.30
2024-05-09T11:12:04.367Z,18.50
2024-05-09T11:14:53.996Z,19.00
2024-05-09T11:17:38.140Z,19.00
2024-05-09T11:20:26.920Z,19.10
2024-05-09T11:23:13.224Z,18.70
2024-05-09T11:25:57.448Z,18.70
2024-05-09T11:28:44.116Z,18.90
2024-05-09T11:31:26.693Z,19.10
2024-05-09T11:34:10.257Z,18.90
2024-05-09T11:36:52.942Z,18.90
2024-05-09T11:39:35.898Z,18.90
2024-05-09T11:42:18.592Z,18.50
2024-05-09T11:45:01.356Z,18.50
2024-05-09T11:47:43.825Z,18.30
2024-05-09T11:50:32.786Z,18.40
2024-05-09T11:53:17.951Z,18.50
2024-05-09T11:56:00.881Z,18.70
2024-05-09T11:58:43.366Z,18.90
2024-05-09T12:01:27.997Z,18.90
2024-05-09T12:04:16.270Z,19.00
2024-05-09T12:07:00.132Z,18.90
2024-05-09T12:09:43.863Z,18.90
2024-05-09T12:12:28.468Z,18.90
2024-05-09T12:15:10.872Z,18.90
2024-05-09T12:17:53.784Z,18.90
2024-05-09T12:20:39.146Z,18.70
2024-05-09T12:23:23.001Z,18.60
2024-05-09T12:26:05.411Z,18.60
2024-05-09T12:28:48.182Z,18.50
2024-05-09T12:31:30.656Z,18.50
2024-05-09T12:34:14.691Z,18.30
2024-05-09T12:36:58.354Z,18.10
2024-05-09T12:39:41.063Z,18.00
2024-05-09T12:42:27.410Z,18.00
2024-05-09T12:45:11.424Z,18.30
2024-05-09T12:47:54.231Z,18.50
2024-05-09T12:50:38.848Z,18.60
2024-05-09T12:53:21.371Z,18.80
2024-05-09T12:56:05.472Z,18.70
2024-05-09T12:58:48.636Z,18.80
2024-05-09T13:01:31.463Z,18.80
2024-05-09T13:04:14.053Z,18.60
2024-05-09T13:06:57.014Z,18.50
2024-05-09T13:09:39.658Z,18.60
2024-05-09T13:12:24.313Z,18.70
2024-05-09T13:15:07.004Z,18.40
2024-05-09T13:17:49.876Z,18.40
2024-05-09T13:20:35.138Z,18.50
2024-05-09T13:23:19.014Z,18.60
2024-05-09T13:26:01.848Z,18.50
2024-05-09T13:28:44.914Z,18.40
2024-05-09T13:31:27.591Z,18.20
2024-05-09T13:34:11.507Z,18.40
2024-05-09T13:36:54.188Z,18.40
2024-05-09T13:39:37.071Z,18.40
2024-05-09T13:42:19.442Z,18.30
2024-05-09T13:45:02.126Z,18.50
2024-05-09T13:47:44.670Z,18.40
2024-05-09T13:50:33.618Z,17.90
2024-05-09T13:53:18.471Z,17.90
2024-05-09T13:56:01.256Z,18.10
2024-05-09T13:58:44.000Z,17.90
2024-05-09T14:01:26.927Z,18.00
2024-05-09T14:04:10.129Z,17.80
2024-05-09T14:06:53.174Z,17.60
2024-05-09T14:09:35.893Z,17.20
2024-05-09T14:12:18.767Z,17.20
2024-05-09T14:15:01.142Z,17.00
2024-05-09T14:17:44.111Z,17.00
2024-05-09T14:20:31.193Z,17.20
2024-05-09T14:23:17.580Z,17.30
2024-05-09T14:25:59.949Z,17.20
2024-05-09T14:28:42.869Z,17.20
2024-05-09T14:31:25.438Z,17.20
2024-05-09T14:34:08.853Z,17.30
2024-05-09T14:36:51.679Z,17.40
2024-05-09T14:39:34.553Z,17.00
2024-05-09T14:42:17.007Z,17.00
2024-05-09T14:45:00.190Z,17.00
2024-05-09T14:47:43.139Z,17.10
2024-05-09T14:50:34.649Z,17.10
2024-05-09T14:53:26.724Z,17.10
2024-05-09T14:56:10.162Z,17.00
2024-05-09T14:58:52.756Z,17.10
2024-05-09T15:01:35.782Z,16.90
2024-05-09T15:04:18.298Z,17.00
2024-05-09T15:07:01.486Z,17.00
2024-05-09T15:09:43.942Z,17.00
2024-05-09T15:12:26.903Z,17.00
2024-05-09T15:15:09.316Z,17.10
2024-05-09T15:17:52.877Z,17.10
2024-05-09T15:20:37.340Z,17.10
2024-05-09T15:23:20.928Z,17.10
2024-05-09T15:26:04.312Z,17.20
2024-05-09T15:28:47.059Z,17.10
2024-05-09T15:31:29.969Z,17.00
2024-05-09T15:34:13.012Z,17.10
2024-05-09T15:36:55.763Z,17.10
2024-05-09T15:39:40.357Z,17.00
2024-05-09T15:42:22.740Z,16.90
2024-05-09T15:45:05.845Z,16.90
2024-05-09T15:47:48.388Z,16.70
2024-05-09T15:50:37.885Z,16.60
2024-05-09T15:53:23.793Z,16.70
2024-05-09T15:56:07.032Z,16.70
2024-05-09T15:58:49.495Z,16.80
2024-05-09T16:01:33.728Z,16.90
2024-05-09T16:04:16.382Z,16.80
2024-05-09T16:06:59.441Z,16.60
2024-05-09T16:09:41.890Z,16.60
2024-05-09T16:12:25.215Z,16.70
2024-05-09T16:15:08.211Z,16.60
2024-05-09T16:17:51.148Z,16.60
2024-05-09T16:20:39.218Z,16.60
2024-05-09T16:23:24.497Z,16.60
2024-05-09T16:26:07.415Z,16.50
2024-05-09T16:28:50.220Z,16.50
2024-05-09T16:31:32.783Z,16.40
2024-05-09T16:34:15.773Z,16.40
2024-05-09T16:36:58.387Z,16.30
2024-05-09T16:39:41.292Z,16.40
2024-05-09T16:42:23.642Z,16.40
2024-05-09T16:45:07.070Z,16.30
2024-05-09T16:47:49.669Z,16.30
2024-05-09T16:50:34.855Z,16.30
2024-05-09T16:53:19.642Z,16.30
2024-05-09T16:56:02.917Z,16.10
2024-05-09T16:58:45.444Z,16.00
2024-05-09T17:01:28.822Z,16.00
2024-05-09T17:04:11.519Z,16.00
2024-05-09T17:06:54.656Z,16.00
2024-05-09T17:09:37.295Z,16.00
2024-05-09T17:12:20.215Z,16.00
2024-05-09T17:15:02.853Z,16.00
2024-05-09T17:17:45.907Z,16.00
2024-05-09T17:20:33.274Z,15.90
2024-05-09T17:23:19.354Z,15.80
2024-05-09T17:26:01.897Z,15.80
2024-05-09T17:28:44.664Z,15.80
2024-05-09T17:31:27.141Z,15.70
2024-05-09T17:34:10.220Z,15.70
2024-05-09T17:36:52.745Z,15.60
2024-05-09T17:39:35.485Z,15.50
2024-05-09T17:42:17.873Z,15.40
2024-05-09T17:45:00.941Z,15.30
2024-05-09T17:47:44.292Z,15.20
2024-05-09T17:50:35.045Z,15.20
2024-05-09T17:53:20.318Z,15.10
2024-05-09T17:56:03.223Z,15.10
2024-05-09T17:58:46.573Z,15.00
2024-05-09T18:01:29.416Z,14.90
2024-05-09T18:04:12.160Z,14.70
2024-05-09T18:06:54.976Z,14.60
2024-05-09T18:09:37.484Z,14.40
2024-05-09T18:12:20.331Z,14.30
2024-05-09T18:15:06.064Z,14.20
2024-05-09T18:17:49.371Z,14.10
2024-05-09T18:20:40.708Z,14.00
2024-05-09T18:23:27.501Z,13.90
2024-05-09T18:26:10.937Z,13.70
2024-05-09T18:28:54.016Z,13.70
2024-05-09T18:31:37.961Z,13.60
2024-05-09T18:34:21.139Z,13.40
2024-05-09T18:37:04.555Z,13.30
2024-05-09T18:39:47.776Z,13.20
2024-05-09T18:42:30.200Z,13.00
2024-05-09T18:45:13.447Z,12.90
2024-05-09T18:47:56.362Z,12.80
2024-05-09T18:50:41.085Z,12.70
2024-05-09T18:53:24.211Z,12.60
2024-05-09T18:56:08.356Z,12.50
2024-05-09T18:58:50.765Z,12.40
2024-05-09T19:01:33.812Z,12.30
2024-05-09T19:04:18.697Z,12.20
2024-05-09T19:07:04.282Z,12.10
2024-05-09T19:09:47.633Z,12.00
2024-05-09T19:12:30.561Z,11.90
2024-05-09T19:15:13.088Z,11.80
2024-05-09T19:17:56.052Z,11.80
2024-05-09T19:20:39.044Z,11.70
2024-05-09T19:23:22.021Z,11.60
2024-05-09T19:26:04.522Z,11.50
2024-05-09T19:28:47.321Z,11.40
2024-05-09T19:31:29.868Z,11.30
2024-05-09T19:34:12.717Z,11.20
2024-05-09T19:36:55.178Z,11.10
2024-05-09T19:39:38.553Z,11.10
2024-05-09T19:43:11.606Z,11.00
2024-05-09T19:45:54.718Z,11.00
2024-05-09T19:48:37.378Z,10.90
2024-05-09T19:51:20.339Z,10.90
2024-05-09T19:54:02.646Z,10.80
2024-05-09T19:56:45.596Z,10.70
2024-05-09T19:59:29.208Z,10.60
2024-05-09T20:02:13.276Z,10.60
2024-05-09T20:04:56.965Z,10.50
2024-05-09T20:07:40.012Z,10.40
2024-05-09T20:10:26.221Z,10.30
2024-05-09T20:13:14.046Z,10.30
2024-05-09T20:15:56.793Z,10.20
2024-05-09T20:18:39.771Z,10.10
2024-05-09T20:21:22.312Z,10.00
2024-05-09T20:24:05.460Z,9.90
2024-05-09T20:26:47.862Z,9.80
2024-05-09T20:29:30.909Z,9.70
2024-05-09T20:32:13.318Z,9.70
2024-05-09T20:34:55.993Z,9.60
2024-05-09T20:37:38.355Z,9.50
2024-05-09T20:40:28.742Z,9.50
2024-05-09T20:43:15.656Z,9.50
2024-05-09T20:45:58.609Z,9.40
2024-05-09T20:48:41.188Z,9.30
2024-05-09T20:51:24.021Z,9.30
2024-05-09T20:54:06.294Z,9.30
2024-05-09T20:56:49.188Z,9.20
2024-05-09T20:59:31.568Z,9.10
2024-05-09T21:02:14.460Z,9.00
2024-05-09T21:04:57.610Z,9.00
2024-05-09T21:07:42.815Z,9.00
2024-05-09T21:10:27.143Z,8.90
2024-05-09T21:13:12.447Z,8.90
2024-05-09T21:15:55.089Z,8.80
2024-05-09T21:18:38.239Z,8.80
2024-05-09T21:21:20.727Z,8.70
2024-05-09T21:24:03.665Z,8.70
2024-05-09T21:26:46.142Z,8.60
2024-05-09T21:29:28.975Z,8.50
2024-05-09T21:32:11.655Z,8.40
2024-05-09T21:34:54.547Z,8.30
2024-05-09T21:37:37.604Z,8.20
2024-05-09T21:40:30.685Z,8.20
2024-05-09T21:43:16.417Z,8.10
2024-05-09T21:45:59.281Z,8.00
2024-05-09T21:48:41.672Z,7.90
2024-05-09T21:51:25.313Z,7.90
2024-05-09T21:54:07.681Z,7.90
2024-05-09T21:56:50.550Z,7.80
2024-05-09T21:59:33.068Z,7.80
2024-05-09T22:02:16.004Z,7.80
2024-05-09T22:05:17.251Z,7.70
2024-05-09T22:08:00.564Z,7.60
2024-05-09T22:10:43.356Z,7.60
2024-05-09T22:13:26.317Z,7.60
2024-05-09T22:16:09.062Z,7.50
2024-05-09T22:18:52.282Z,7.50
2024-05-09T22:21:34.604Z,7.40
2024-05-09T22:24:17.323Z,7.30
2024-05-09T22:26:59.573Z,7.20
2024-05-09T22:29:42.209Z,7.20
2024-05-09T22:32:24.523Z,7.20
2024-05-09T22:35:08.150Z,7.10
2024-05-09T22:37:50.416Z,7.10
2024-05-09T22:40:42.738Z,7.10
2024-05-09T22:43:30.266Z,7.00
2024-05-09T22:46:13.074Z,7.00
2024-05-09T22:48:55.594Z,7.00
2024-05-09T22:51:38.534Z,6.90
2024-05-09T22:54:20.871Z,6.90
2024-05-09T22:57:03.834Z,6.90
2024-05-09T22:59:46.177Z,6.80
2024-05-09T23:02:28.975Z,6.80
2024-05-09T23:05:11.628Z,6.80
2024-05-09T23:07:54.496Z,6.70
2024-05-09T23:10:38.078Z,6.70
2024-05-09T23:13:21.537Z,6.60
2024-05-09T23:16:04.255Z,6.60
2024-05-09T23:18:47.682Z,6.50
2024-05-09T23:21:30.063Z,6.40
2024-05-09T23:24:13.253Z,6.40
2024-05-09T23:26:55.663Z,6.40
2024-05-09T23:29:38.358Z,6.30
2024-05-09T23:32:20.809Z,6.30
2024-05-09T23:35:03.757Z,6.30
2024-05-09T23:37:46.502Z,6.30
2024-05-09T23:40:37.862Z,6.30
2024-05-09T23:43:22.945Z,6.30
2024-05-09T23:46:06.195Z,6.30
2024-05-09T23:48:48.745Z,6.20
2024-05-09T23:51:31.569Z,6.10
2024-05-09T23:54:13.905Z,6.10
2024-05-09T23:56:56.632Z,6.10
2024-05-09T23:59:38.868Z,6.10
